createdAt,value
2017-05-22T00:01:13.619Z,2.90
2017-05-22T00:03:41.847Z,5.84
2017-05-22T00:06:10.162Z,3.10
2017-05-22T00:08:37.620Z,3.56
2017-05-22T00:11:05.894Z,4.26
2017-05-22T00:13:34.137Z,3.78
2017-05-22T00:16:02.431Z,3.50
2017-05-22T00:18:30.723Z,4.04
2017-05-22T00:20:58.966Z,4.42
2017-05-22T00:23:27.214Z,4.06
2017-05-22T00:25:55.458Z,4.84
2017-05-22T00:28:23.709Z,3.98
2017-05-22T00:30:51.945Z,5.96
2017-05-22T00:33:20.259Z,5.14
2017-05-22T00:35:48.511Z,3.54
2017-05-22T00:38:15.989Z,5.76
2017-05-22T00:40:44.230Z,3.44
2017-05-22T00:43:12.560Z,3.48
2017-05-22T00:45:40.788Z,3.88
2017-05-22T00:48:08.247Z,3.82
2017-05-22T00:50:36.561Z,3.70
2017-05-22T00:53:04.805Z,4.30
2017-05-22T00:55:33.061Z,4.76
2017-05-22T00:58:01.312Z,3.78
2017-05-22T01:00:29.560Z,3.48
2017-05-22T01:02:57.793Z,3.08
2017-05-22T01:05:26.033Z,3.94
2017-05-22T01:07:54.263Z,3.60
2017-05-22T01:10:22.499Z,3.68
2017-05-22T01:12:50.732Z,3.76
2017-05-22T01:15:19.014Z,4.84
2017-05-22T01:17:47.236Z,4.40
2017-05-22T01:20:15.483Z,4.24
2017-05-22T01:22:43.708Z,4.60
2017-05-22T01:25:11.938Z,7.54
2017-05-22T01:27:40.186Z,4.90
2017-05-22T01:30:08.437Z,4.92
2017-05-22T01:32:36.686Z,4.58
2017-05-22T01:35:05.013Z,3.76
2017-05-22T01:37:33.257Z,4.30
2017-05-22T01:40:01.511Z,4.88
2017-05-22T01:42:29.828Z,3.84
2017-05-22T01:44:57.310Z,5.82
2017-05-22T01:47:25.559Z,4.36
2017-05-22T01:49:53.807Z,3.70
2017-05-22T01:52:22.125Z,3.62
2017-05-22T01:54:50.373Z,4.04
2017-05-22T01:57:18.613Z,3.62
2017-05-22T01:59:46.945Z,3.80
2017-05-22T02:02:15.230Z,3.70
2017-05-22T02:04:43.473Z,5.58
2017-05-22T02:07:11.785Z,3.88
2017-05-22T02:09:40.054Z,3.74
2017-05-22T02:12:08.310Z,3.66
2017-05-22T02:14:36.557Z,3.20
2017-05-22T02:17:04.018Z,2.98
2017-05-22T02:19:32.251Z,4.18
2017-05-22T02:21:59.724Z,3.58
2017-05-22T02:24:27.965Z,4.46
2017-05-22T02:26:56.339Z,4.72
2017-05-22T02:29:24.575Z,5.40
2017-05-22T02:31:52.888Z,4.06
2017-05-22T02:34:21.128Z,4.26
2017-05-22T02:36:49.454Z,4.32
2017-05-22T02:39:17.684Z,4.86
2017-05-22T02:41:45.998Z,5.28
2017-05-22T02:44:14.233Z,4.50
2017-05-22T02:46:42.469Z,5.88
2017-05-22T02:49:10.703Z,4.76
2017-05-22T02:51:39.001Z,4.76
2017-05-22T02:54:07.359Z,4.76
2017-05-22T02:56:35.649Z,8.64
2017-05-22T02:59:03.907Z,4.68
2017-05-22T03:01:32.134Z,5.22
2017-05-22T03:04:00.368Z,6.42
2017-05-22T03:06:28.611Z,6.28
2017-05-22T03:08:56.842Z,5.64
2017-05-22T03:11:25.078Z,6.50
2017-05-22T03:13:53.327Z,5.14
2017-05-22T03:16:21.577Z,5.58
2017-05-22T03:18:49.930Z,5.30
2017-05-22T03:21:18.195Z,5.48
2017-05-22T03:23:46.472Z,5.42
2017-05-22T03:26:14.714Z,6.58
2017-05-22T03:28:42.944Z,6.10
2017-05-22T03:31:10.414Z,5.54
2017-05-22T03:33:38.658Z,5.68
2017-05-22T03:36:06.900Z,5.28
2017-05-22T03:38:35.147Z,6.58
2017-05-22T03:41:03.385Z,4.74
2017-05-22T03:43:31.642Z,7.88
2017-05-22T03:45:59.881Z,4.56
2017-05-22T03:48:28.152Z,4.42
2017-05-22T03:50:56.394Z,5.30
2017-05-22T03:53:24.641Z,4.32
2017-05-22T03:55:52.896Z,7.10
2017-05-22T03:58:21.208Z,5.06
2017-05-22T04:00:49.458Z,6.18
2017-05-22T04:03:17.698Z,4.68
2017-05-22T04:05:45.932Z,5.30
2017-05-22T04:08:13.411Z,4.80
2017-05-22T04:10:41.638Z,4.26
2017-05-22T04:13:09.887Z,5.08
2017-05-22T04:15:38.296Z,5.22
2017-05-22T04:18:06.557Z,4.30
2017-05-22T04:20:34.810Z,5.12
2017-05-22T04:23:02.284Z,4.24
2017-05-22T04:25:30.548Z,4.50
2017-05-22T04:27:58.876Z,4.70
2017-05-22T04:30:27.107Z,4.48
2017-05-22T04:32:55.430Z,4.48
2017-05-22T04:35:22.900Z,5.92
2017-05-22T04:37:51.161Z,5.18
2017-05-22T04:40:19.391Z,4.90
2017-05-22T04:42:47.624Z,5.22
2017-05-22T04:45:15.875Z,5.10
2017-05-22T04:47:44.134Z,6.22
2017-05-22T04:50:12.363Z,4.82
2017-05-22T04:52:40.617Z,4.56
2017-05-22T04:55:08.876Z,6.86
2017-05-22T04:57:37.141Z,4.70
2017-05-22T05:00:05.371Z,4.90
2017-05-22T05:02:33.622Z,5.50
2017-05-22T05:05:01.864Z,5.88
2017-05-22T05:07:30.169Z,5.92
2017-05-22T05:09:58.415Z,5.80
2017-05-22T05:12:26.703Z,5.32
2017-05-22T05:14:54.933Z,4.72
2017-05-22T05:17:23.165Z,5.70
2017-05-22T05:19:51.418Z,5.28
2017-05-22T05:22:19.717Z,4.84
2017-05-22T05:24:47.969Z,4.52
2017-05-22T05:27:16.209Z,4.62
2017-05-22T05:29:44.539Z,4.98
2017-05-22T05:32:12.781Z,4.78
2017-05-22T05:34:41.021Z,4.44
2017-05-22T05:37:09.370Z,4.10
2017-05-22T05:39:37.646Z,4.46
2017-05-22T05:42:05.882Z,5.44
2017-05-22T05:44:34.116Z,4.28
2017-05-22T05:47:02.357Z,4.62
2017-05-22T05:49:30.637Z,4.04
2017-05-22T05:51:58.131Z,4.10
2017-05-22T05:54:26.475Z,5.00
2017-05-22T05:56:54.711Z,4.06
2017-05-22T05:59:23.026Z,6.40
2017-05-22T06:01:51.295Z,5.08
2017-05-22T06:04:19.545Z,6.46
2017-05-22T06:06:47.858Z,7.52
2017-05-22T06:09:16.086Z,5.24
2017-05-22T06:11:44.395Z,4.96
2017-05-22T06:14:12.690Z,4.64
2017-05-22T06:16:40.938Z,4.06
2017-05-22T06:19:09.161Z,3.58
2017-05-22T06:21:37.398Z,4.42
2017-05-22T06:24:05.636Z,4.32
2017-05-22T06:26:33.877Z,4.36
2017-05-22T06:29:02.237Z,3.90
2017-05-22T06:31:30.467Z,4.52
2017-05-22T06:33:58.718Z,4.56
2017-05-22T06:36:26.951Z,4.64
2017-05-22T06:38:55.188Z,4.74
2017-05-22T06:41:23.411Z,5.08
2017-05-22T06:43:51.686Z,5.48
2017-05-22T06:46:19.911Z,4.30
2017-05-22T06:48:48.150Z,6.22
2017-05-22T06:51:16.371Z,5.70
2017-05-22T06:53:44.623Z,6.52
2017-05-22T06:56:12.948Z,6.96
2017-05-22T06:58:41.192Z,5.96
2017-05-22T07:01:09.437Z,10.36
2017-05-22T07:03:37.682Z,6.20
2017-05-22T07:06:05.951Z,6.32
2017-05-22T07:08:34.246Z,7.48
2017-05-22T07:11:02.501Z,7.26
2017-05-22T07:13:30.746Z,6.94
2017-05-22T07:15:59.066Z,6.96
2017-05-22T07:18:27.321Z,7.22
2017-05-22T07:20:55.569Z,6.86
2017-05-22T07:23:23.808Z,7.22
2017-05-22T07:25:52.061Z,6.34
2017-05-22T07:28:20.341Z,6.64
2017-05-22T07:30:48.570Z,6.00
2017-05-22T07:33:16.891Z,7.52
2017-05-22T07:35:45.125Z,9.58
2017-05-22T07:38:13.367Z,7.00
2017-05-22T07:40:41.609Z,6.56
2017-05-22T07:43:09.863Z,6.90
2017-05-22T07:45:38.110Z,7.40
2017-05-22T07:48:06.312Z,7.04
2017-05-22T07:50:34.575Z,8.34
2017-05-22T07:53:02.814Z,9.26
2017-05-22T07:55:31.062Z,6.64
2017-05-22T07:57:59.296Z,5.98
2017-05-22T08:00:27.522Z,7.88
2017-05-22T08:02:55.766Z,7.06
2017-05-22T08:05:24.010Z,6.90
2017-05-22T08:07:52.246Z,6.22
2017-05-22T08:10:20.494Z,6.96
2017-05-22T08:12:48.781Z,6.92
2017-05-22T08:15:17.051Z,7.40
2017-05-22T08:17:45.337Z,5.88
2017-05-22T08:20:13.573Z,7.38
2017-05-22T08:22:41.814Z,6.50
2017-05-22T08:25:10.058Z,7.16
2017-05-22T08:27:38.292Z,9.38
2017-05-22T08:30:06.525Z,6.72
2017-05-22T08:32:34.773Z,7.40
2017-05-22T08:35:03.066Z,7.74
2017-05-22T08:37:31.293Z,7.48
2017-05-22T08:39:59.529Z,8.00
2017-05-22T08:42:27.794Z,6.36
2017-05-22T08:44:56.017Z,7.22
2017-05-22T08:47:24.341Z,6.80
2017-05-22T08:49:52.581Z,6.80
2017-05-22T08:52:20.857Z,6.30
2017-05-22T08:54:49.158Z,6.86
2017-05-22T08:57:17.439Z,6.86
2017-05-22T08:59:45.666Z,5.92
2017-05-22T09:02:13.887Z,7.56
2017-05-22T09:04:42.139Z,6.18
2017-05-22T09:07:10.449Z,6.36
2017-05-22T09:09:38.726Z,5.14
2017-05-22T09:12:06.954Z,6.64
2017-05-22T09:14:35.259Z,6.72
2017-05-22T09:17:03.501Z,7.58
2017-05-22T09:19:31.727Z,5.40
2017-05-22T09:22:00.893Z,5.58
2017-05-22T09:24:29.162Z,5.88
2017-05-22T09:26:57.459Z,6.28
2017-05-22T09:29:25.706Z,6.52
2017-05-22T09:31:53.928Z,6.06
2017-05-22T09:34:22.177Z,6.94
2017-05-22T09:36:50.398Z,5.38
2017-05-22T09:39:18.734Z,5.64
2017-05-22T09:41:46.977Z,5.70
2017-05-22T09:44:15.295Z,5.82
2017-05-22T09:46:43.569Z,4.72
2017-05-22T09:49:11.849Z,6.66
2017-05-22T09:51:40.113Z,6.86
2017-05-22T09:54:08.359Z,6.34
2017-05-22T09:56:35.837Z,6.10
2017-05-22T09:59:04.131Z,5.46
2017-05-22T10:01:32.401Z,5.74
2017-05-22T10:04:00.667Z,6.68
2017-05-22T10:06:28.951Z,5.48
2017-05-22T10:08:57.189Z,5.04
2017-05-22T10:11:25.415Z,5.82
2017-05-22T10:13:53.686Z,5.90
2017-05-22T10:16:21.957Z,5.34
2017-05-22T10:18:50.197Z,5.98
2017-05-22T10:21:18.444Z,5.66
2017-05-22T10:23:46.663Z,5.60
2017-05-22T10:26:14.910Z,6.94
2017-05-22T10:28:43.227Z,5.80
2017-05-22T10:31:11.499Z,4.80
2017-05-22T10:33:39.747Z,5.70
2017-05-22T10:36:07.967Z,5.08
2017-05-22T10:38:36.320Z,5.18
2017-05-22T10:41:04.562Z,6.72
2017-05-22T10:43:32.797Z,3.80
2017-05-22T10:46:01.037Z,6.00
2017-05-22T10:48:29.379Z,5.36
2017-05-22T10:50:57.713Z,5.28
2017-05-22T10:53:25.943Z,5.06
2017-05-22T10:55:54.182Z,4.92
2017-05-22T10:58:22.443Z,4.22
2017-05-22T11:00:50.702Z,4.76
2017-05-22T11:03:18.931Z,4.58
2017-05-22T11:05:47.178Z,4.06
2017-05-22T11:08:15.421Z,3.82
2017-05-22T11:10:43.710Z,4.78
2017-05-22T11:13:11.989Z,5.02
2017-05-22T11:15:40.266Z,6.16
2017-05-22T11:18:08.494Z,4.36
2017-05-22T11:20:36.743Z,4.28
2017-05-22T11:23:04.964Z,4.98
2017-05-22T11:25:33.207Z,4.44
2017-05-22T11:28:01.427Z,4.68
2017-05-22T11:30:29.673Z,3.90
2017-05-22T11:32:57.993Z,4.62
2017-05-22T11:35:26.217Z,4.08
2017-05-22T11:37:54.460Z,7.20
2017-05-22T11:40:22.686Z,8.50
2017-05-22T11:42:50.919Z,4.50
2017-05-22T11:45:19.153Z,4.32
2017-05-22T11:47:47.414Z,6.20
2017-05-22T11:50:15.722Z,4.16
2017-05-22T11:52:43.958Z,4.22
2017-05-22T11:55:12.205Z,5.80
2017-05-22T11:57:40.428Z,7.90
2017-05-22T12:00:08.655Z,5.04
2017-05-22T12:02:36.886Z,5.34
2017-05-22T12:05:05.122Z,5.36
2017-05-22T12:07:33.435Z,4.78
2017-05-22T12:10:00.913Z,4.74
2017-05-22T12:12:29.174Z,4.78
2017-05-22T12:14:57.426Z,4.20
2017-05-22T12:17:25.715Z,3.96
2017-05-22T12:19:53.982Z,4.30
2017-05-22T12:22:22.227Z,6.18
2017-05-22T12:24:50.463Z,4.60
2017-05-22T12:27:18.714Z,4.60
2017-05-22T12:29:46.943Z,4.86
2017-05-22T12:32:15.270Z,3.88
2017-05-22T12:34:43.499Z,4.42
2017-05-22T12:37:11.728Z,4.32
2017-05-22T12:39:39.983Z,4.70
2017-05-22T12:42:08.223Z,4.86
2017-05-22T12:44:36.543Z,6.74
2017-05-22T12:47:04.821Z,4.52
2017-05-22T12:49:33.051Z,3.72
2017-05-22T12:52:01.681Z,3.42
2017-05-22T12:54:29.911Z,3.04
2017-05-22T12:56:58.151Z,4.06
2017-05-22T12:59:26.409Z,3.72
2017-05-22T13:01:54.649Z,3.40
2017-05-22T13:04:22.883Z,3.76
2017-05-22T13:06:51.115Z,2.92
2017-05-22T13:09:19.346Z,2.84
2017-05-22T13:11:47.585Z,3.16
2017-05-22T13:14:15.834Z,3.36
2017-05-22T13:16:44.060Z,3.56
2017-05-22T13:19:12.299Z,3.56
2017-05-22T13:21:40.538Z,4.30
2017-05-22T13:24:08.779Z,3.30
2017-05-22T13:26:37.012Z,3.48
2017-05-22T13:29:05.281Z,3.70
2017-05-22T13:31:33.578Z,4.70
2017-05-22T13:34:01.825Z,4.44
2017-05-22T13:36:30.075Z,4.24
2017-05-22T13:38:58.299Z,3.96
2017-05-22T13:41:26.550Z,3.14
2017-05-22T13:43:54.791Z,3.36
2017-05-22T13:46:23.030Z,3.86
2017-05-22T13:48:51.274Z,3.30
2017-05-22T13:51:19.499Z,4.76
2017-05-22T13:53:47.736Z,5.16
2017-05-22T13:56:15.984Z,5.20
2017-05-22T13:58:44.212Z,5.18
2017-05-22T14:01:12.474Z,3.52
2017-05-22T14:03:40.725Z,3.50
2017-05-22T14:06:08.963Z,3.96
2017-05-22T14:08:37.210Z,3.96
2017-05-22T14:11:05.453Z,4.18
2017-05-22T14:13:33.702Z,3.26
2017-05-22T14:16:01.937Z,3.70
2017-05-22T14:18:30.179Z,3.48
2017-05-22T14:20:58.403Z,4.06
2017-05-22T14:23:26.645Z,4.44
2017-05-22T14:25:54.925Z,4.50
2017-05-22T14:28:23.166Z,3.34
2017-05-22T14:30:51.462Z,3.50
2017-05-22T14:33:19.716Z,3.40
2017-05-22T14:35:47.957Z,3.92
2017-05-22T14:38:16.196Z,4.18
2017-05-22T14:40:44.463Z,3.44
2017-05-22T14:43:12.705Z,4.36
2017-05-22T14:45:40.936Z,3.66
2017-05-22T14:48:09.189Z,4.16
2017-05-22T14:50:37.429Z,4.84
2017-05-22T14:53:05.673Z,3.06
2017-05-22T14:55:33.918Z,3.46
2017-05-22T14:58:02.197Z,3.44
2017-05-22T15:00:30.447Z,4.08
2017-05-22T15:02:58.753Z,5.64
2017-05-22T15:05:26.991Z,4.36
2017-05-22T15:07:55.220Z,5.28
2017-05-22T15:10:23.558Z,5.18
2017-05-22T15:12:51.790Z,4.10
2017-05-22T15:15:20.014Z,4.16
2017-05-22T15:17:48.259Z,3.82
2017-05-22T15:20:16.573Z,3.62
2017-05-22T15:22:44.138Z,3.88
2017-05-22T15:25:12.378Z,4.36
2017-05-22T15:27:40.603Z,4.04
2017-05-22T15:30:08.841Z,3.62
2017-05-22T15:32:36.317Z,4.20
2017-05-22T15:35:04.578Z,3.80
2017-05-22T15:37:32.821Z,4.00
2017-05-22T15:40:01.138Z,2.80
2017-05-22T15:42:29.393Z,4.14
2017-05-22T15:44:57.689Z,3.86
2017-05-22T15:47:25.972Z,3.32
2017-05-22T15:49:54.196Z,3.74
2017-05-22T15:52:21.680Z,4.08
2017-05-22T15:54:49.959Z,3.54
2017-05-22T15:57:18.236Z,3.84
2017-05-22T15:59:46.478Z,3.78
2017-05-22T16:02:14.787Z,3.96
2017-05-22T16:04:43.033Z,5.38
2017-05-22T16:07:11.273Z,4.02
2017-05-22T16:09:39.521Z,4.48
2017-05-22T16:12:07.766Z,3.58
2017-05-22T16:14:36.007Z,4.38
2017-05-22T16:17:04.248Z,3.60
2017-05-22T16:19:32.517Z,3.84
2017-05-22T16:22:00.744Z,4.40
2017-05-22T16:24:29.074Z,3.72
2017-05-22T16:26:57.313Z,4.26
2017-05-22T16:29:25.557Z,3.90
2017-05-22T16:31:53.793Z,4.20
2017-05-22T16:34:22.037Z,3.62
2017-05-22T16:36:50.346Z,4.30
2017-05-22T16:39:18.588Z,4.02
2017-05-22T16:41:46.837Z,4.42
2017-05-22T16:44:15.064Z,4.24
2017-05-22T16:46:43.314Z,4.00
2017-05-22T16:49:11.622Z,4.78
2017-05-22T16:51:39.884Z,3.70
2017-05-22T16:54:08.127Z,3.92
2017-05-22T16:56:36.365Z,4.38
2017-05-22T16:59:04.717Z,5.02
2017-05-22T17:01:32.957Z,3.80
2017-05-22T17:04:01.193Z,5.18
2017-05-22T17:06:29.429Z,3.70
2017-05-22T17:08:57.710Z,4.12
2017-05-22T17:11:25.958Z,4.00
2017-05-22T17:13:54.210Z,3.84
2017-05-22T17:16:22.445Z,3.72
2017-05-22T17:18:50.816Z,4.24
2017-05-22T17:21:19.102Z,4.04
2017-05-22T17:23:47.328Z,4.86
2017-05-22T17:26:15.572Z,4.32
2017-05-22T17:28:43.801Z,5.60
2017-05-22T17:31:12.041Z,4.14
2017-05-22T17:33:40.281Z,4.18
2017-05-22T17:36:08.524Z,6.20
2017-05-22T17:38:36.761Z,4.16
2017-05-22T17:41:05.084Z,5.80
2017-05-22T17:43:33.327Z,4.50
2017-05-22T17:46:01.669Z,5.40
2017-05-22T17:48:29.146Z,4.16
2017-05-22T17:50:57.393Z,3.78
2017-05-22T17:53:25.637Z,5.28
2017-05-22T17:55:53.874Z,4.78
2017-05-22T17:58:21.341Z,4.80
2017-05-22T18:00:49.665Z,4.76
2017-05-22T18:03:17.889Z,4.66
2017-05-22T18:05:46.120Z,4.04
2017-05-22T18:08:14.355Z,6.76
2017-05-22T18:10:42.650Z,5.68
2017-05-22T18:13:10.897Z,5.18
2017-05-22T18:15:39.218Z,4.76
2017-05-22T18:18:07.474Z,5.02
2017-05-22T18:20:35.765Z,5.50
2017-05-22T18:23:04.040Z,5.74
2017-05-22T18:25:32.282Z,5.76
2017-05-22T18:28:00.517Z,4.64
2017-05-22T18:30:28.859Z,4.70
2017-05-22T18:32:57.155Z,8.56
2017-05-22T18:35:25.393Z,5.08
2017-05-22T18:37:53.647Z,5.98
2017-05-22T18:40:21.880Z,5.10
2017-05-22T18:42:50.122Z,5.10
2017-05-22T18:45:18.370Z,4.98
2017-05-22T18:47:46.614Z,5.92
2017-05-22T18:50:14.868Z,5.96
2017-05-22T18:52:43.143Z,5.80
2017-05-22T18:55:11.390Z,5.90
2017-05-22T18:57:39.625Z,6.14
2017-05-22T19:00:07.873Z,5.98
2017-05-22T19:02:36.140Z,5.82
2017-05-22T19:05:04.421Z,5.42
2017-05-22T19:07:32.650Z,6.54
2017-05-22T19:10:00.880Z,6.90
2017-05-22T19:12:29.123Z,7.10
2017-05-22T19:14:57.423Z,7.22
2017-05-22T19:17:25.660Z,7.76
2017-05-22T19:19:53.160Z,6.74
2017-05-22T19:22:21.434Z,7.42
2017-05-22T19:24:49.663Z,7.10
2017-05-22T19:27:17.935Z,7.66
2017-05-22T19:29:46.184Z,8.38
2017-05-22T19:32:14.527Z,7.26
2017-05-22T19:34:42.769Z,6.86
2017-05-22T19:37:11.037Z,7.50
2017-05-22T19:39:39.319Z,7.50
2017-05-22T19:42:07.542Z,7.82
2017-05-22T19:44:35.809Z,7.40
2017-05-22T19:47:04.048Z,8.20
2017-05-22T19:49:32.326Z,8.42
2017-05-22T19:52:00.679Z,8.58
2017-05-22T19:54:28.929Z,8.42
2017-05-22T19:56:57.156Z,8.14
2017-05-22T19:59:25.394Z,8.56
2017-05-22T20:01:53.635Z,7.92
2017-05-22T20:04:21.387Z,7.04
2017-05-22T20:06:49.768Z,8.20
2017-05-22T20:09:18.026Z,7.58
2017-05-22T20:11:46.286Z,7.66
2017-05-22T20:14:14.602Z,7.40
2017-05-22T20:16:42.063Z,7.04
2017-05-22T20:19:10.308Z,8.08
2017-05-22T20:21:37.773Z,8.68
2017-05-22T20:24:06.011Z,11.06
2017-05-22T20:26:34.236Z,9.28
2017-05-22T20:29:02.477Z,8.10
2017-05-22T20:31:30.770Z,8.60
2017-05-22T20:33:59.068Z,7.16
2017-05-22T20:36:27.311Z,7.46
2017-05-22T20:38:55.558Z,9.18
2017-05-22T20:41:23.811Z,8.64
2017-05-22T20:43:52.085Z,8.18
2017-05-22T20:46:20.326Z,7.98
2017-05-22T20:48:48.560Z,8.10
2017-05-22T20:51:16.889Z,7.64
2017-05-22T20:53:45.163Z,8.86
2017-05-22T20:56:13.415Z,7.78
2017-05-22T20:58:41.718Z,8.16
2017-05-22T21:01:09.965Z,8.74
2017-05-22T21:03:38.206Z,7.78
2017-05-22T21:06:06.447Z,10.34
2017-05-22T21:08:34.691Z,9.38
2017-05-22T21:11:02.998Z,12.48
2017-05-22T21:13:31.274Z,11.72
2017-05-22T21:15:59.555Z,12.38
2017-05-22T21:18:27.822Z,11.54
2017-05-22T21:20:56.063Z,11.46
2017-05-22T21:23:24.314Z,10.02
2017-05-22T21:25:52.562Z,10.92
2017-05-22T21:28:20.914Z,12.12
2017-05-22T21:30:49.201Z,11.98
2017-05-22T21:33:17.479Z,11.18
2017-05-22T21:35:46.223Z,13.12
2017-05-22T21:38:14.493Z,11.12
2017-05-22T21:40:42.813Z,13.48
2017-05-22T21:43:11.073Z,12.02
2017-05-22T21:45:39.356Z,11.34
2017-05-22T21:48:07.616Z,12.16
2017-05-22T21:50:35.865Z,11.70
2017-05-22T21:53:04.191Z,13.04
2017-05-22T21:55:32.565Z,12.52
2017-05-22T21:58:00.822Z,13.78
2017-05-22T22:02:40.143Z,13.76
2017-05-22T22:05:08.405Z,13.26
2017-05-22T22:07:36.639Z,14.28
2017-05-22T22:10:04.917Z,12.58
2017-05-22T22:12:33.173Z,12.56
2017-05-22T22:15:01.419Z,13.54
2017-05-22T22:17:29.664Z,13.72
2017-05-22T22:19:58.027Z,14.62
2017-05-22T22:22:26.275Z,11.94
2017-05-22T22:24:54.610Z,14.82
2017-05-22T22:27:22.839Z,14.44
2017-05-22T22:29:51.111Z,14.30
2017-05-22T22:32:19.349Z,14.38
2017-05-22T22:34:47.560Z,14.36
2017-05-22T22:37:15.854Z,13.82
2017-05-22T22:39:44.118Z,14.64
2017-05-22T22:42:12.383Z,13.72
2017-05-22T22:44:40.623Z,15.56
2017-05-22T22:47:08.935Z,16.28
2017-05-22T22:49:37.177Z,15.78
2017-05-22T22:52:05.550Z,16.46
2017-05-22T22:54:33.862Z,14.70
2017-05-22T22:57:02.114Z,15.70
2017-05-22T22:59:30.417Z,15.82
2017-05-22T23:01:58.661Z,16.14
2017-05-22T23:04:26.910Z,18.44
2017-05-22T23:06:55.165Z,15.40
2017-05-22T23:09:23.413Z,16.78
2017-05-22T23:11:51.658Z,14.00
2017-05-22T23:14:19.913Z,15.10
2017-05-22T23:16:48.241Z,13.10
2017-05-22T23:19:16.475Z,14.16
2017-05-22T23:21:44.727Z,14.64
2017-05-22T23:24:12.973Z,17.04
2017-05-22T23:26:41.206Z,16.20
2017-05-22T23:29:09.460Z,14.28
2017-05-22T23:31:37.710Z,16.78
2017-05-22T23:34:05.963Z,16.24
2017-05-22T23:36:34.209Z,18.88
2017-05-22T23:39:02.464Z,16.40
2017-05-22T23:41:30.717Z,18.56
2017-05-22T23:43:59.078Z,16.28
2017-05-22T23:46:27.355Z,17.32
2017-05-22T23:48:55.597Z,18.18
2017-05-22T23:51:23.837Z,16.32
2017-05-22T23:53:52.167Z,15.96
2017-05-22T23:56:20.466Z,17.66
2017-05-22T23:58:48.771Z,16.52
